Time;durP1;ratioP1;P1;durP2;ratioP2;P2;SDS_P1;SDS_P2;PMS_P1;PMS_P2;Temp;Humidity;BMP_temperature;BMP_pressure;BME280_temperature;BME280_humidity;BME280_pressure;Samples;Min_cycle;Max_cycle;Signal;HPM_P1;HPM_P2
2022/07/12 00:01:59;;;;;;;0.60;0.30;;;;;;;14.40;52.43;102463.38;4991451;28;20056;-76
2022/07/12 00:04:24;;;;;;;1.95;0.20;;;;;;;14.42;52.41;102456.34;5029323;28;20038;-77
2022/07/12 00:06:50;;;;;;;1.05;0.30;;;;;;;14.53;52.15;102462.97;5016617;28;20056;-74
2022/07/12 00:09:16;;;;;;;1.05;0.35;;;;;;;14.46;52.02;102463.25;5005659;28;20457;-76
2022/07/12 00:11:41;;;;;;;0.95;0.50;;;;;;;14.44;51.79;102457.16;5021215;28;20083;-76
2022/07/12 00:14:07;;;;;;;0.77;0.20;;;;;;;14.42;52.16;102458.97;5015371;28;20108;-77
2022/07/12 00:16:33;;;;;;;2.42;0.20;;;;;;;14.22;52.29;102460.41;5021130;28;20069;-75
2022/07/12 00:18:58;;;;;;;0.65;0.20;;;;;;;14.38;52.12;102458.16;5019322;28;20092;-76
2022/07/12 00:21:24;;;;;;;1.70;0.38;;;;;;;14.34;51.68;102446.91;5021020;28;20044;-76
2022/07/12 00:23:50;;;;;;;0.45;0.25;;;;;;;14.41;51.81;102446.72;5010833;28;20046;-75
2022/07/12 00:26:15;;;;;;;1.13;0.20;;;;;;;14.35;51.72;102443.34;5008527;28;20064;-75
2022/07/12 00:28:41;;;;;;;1.08;0.45;;;;;;;14.30;51.88;102437.38;5033587;28;20423;-76
2022/07/12 00:31:07;;;;;;;0.60;0.30;;;;;;;14.36;52.17;102438.94;5023774;28;20029;-79
2022/07/12 00:33:32;;;;;;;1.42;0.20;;;;;;;14.43;51.87;102437.00;5006359;28;20725;-78
2022/07/12 00:35:58;;;;;;;0.68;0.17;;;;;;;14.50;51.52;102436.78;5004116;28;20057;-77
2022/07/12 00:38:23;;;;;;;0.55;0.25;;;;;;;14.55;51.73;102434.00;5020893;28;20041;-79
2022/07/12 00:40:49;;;;;;;1.60;0.30;;;;;;;14.62;51.74;102432.88;5009315;28;20041;-79
2022/07/12 00:43:15;;;;;;;0.65;0.20;;;;;;;14.63;51.43;102431.97;5021627;28;20034;-80
2022/07/12 00:45:41;;;;;;;1.10;0.28;;;;;;;14.58;51.28;102433.91;5035650;28;20041;-78
2022/07/12 00:48:07;;;;;;;0.60;0.28;;;;;;;14.56;51.25;102420.78;5015752;28;20098;-78
2022/07/12 00:50:33;;;;;;;1.20;0.20;;;;;;;14.53;51.55;102418.25;5036090;28;20040;-79
2022/07/12 00:52:59;;;;;;;0.85;0.30;;;;;;;14.54;51.34;102420.00;5034315;28;20053;-77
2022/07/12 00:55:25;;;;;;;1.65;0.20;;;;;;;14.54;51.41;102419.09;5014397;28;20033;-78
2022/07/12 00:57:51;;;;;;;0.70;0.20;;;;;;;14.55;51.35;102423.47;5013672;28;20472;-78
2022/07/12 01:00:23;;;;;;;0.60;0.20;;;;;;;14.58;51.52;102418.09;5017628;28;20041;-77
2022/07/12 01:02:50;;;;;;;0.47;0.20;;;;;;;14.60;51.25;102421.53;5014021;28;20053;-77
2022/07/12 01:05:16;;;;;;;0.45;0.22;;;;;;;14.59;51.47;102425.09;5019033;28;20476;-77
2022/07/12 01:07:44;;;;;;;0.55;0.20;;;;;;;14.62;51.55;102427.63;5012178;28;20040;-78
2022/07/12 01:10:10;;;;;;;1.00;0.40;;;;;;;14.44;51.57;102433.47;5004468;28;20099;-78
2022/07/12 01:12:36;;;;;;;0.88;0.50;;;;;;;14.51;51.65;102437.63;5002463;28;20082;-76
2022/07/12 01:15:05;;;;;;;0.80;0.30;;;;;;;14.46;51.29;102440.41;5013546;28;20041;-77
2022/07/12 01:17:30;;;;;;;2.72;0.50;;;;;;;14.41;51.63;102446.72;5030672;28;20037;-77
2022/07/12 01:19:57;;;;;;;1.63;0.52;;;;;;;14.31;51.90;102451.38;5016845;28;20037;-77
2022/07/12 01:22:31;;;;;;;0.88;0.40;;;;;;;14.33;52.04;102455.69;5003230;28;20141;-77
2022/07/12 01:24:57;;;;;;;1.65;0.35;;;;;;;14.26;51.92;102464.66;5018145;28;20381;-78
2022/07/12 01:27:23;;;;;;;0.40;0.17;;;;;;;14.30;52.45;102466.31;5017055;28;20048;-78
2022/07/12 01:29:48;;;;;;;4.18;0.50;;;;;;;14.24;52.38;102466.47;5016844;28;20390;-77
2022/07/12 01:32:27;;;;;;;3.63;0.80;;;;;;;14.14;52.88;102476.44;5001571;28;20087;-77
2022/07/12 01:34:57;;;;;;;2.25;0.60;;;;;;;14.09;52.99;102472.19;5011240;28;20045;-77
2022/07/12 01:37:25;;;;;;;2.53;0.65;;;;;;;14.21;53.15;102477.09;5029582;28;20269;-77
2022/07/12 01:39:57;;;;;;;1.75;0.80;;;;;;;13.92;53.90;102485.84;4999466;28;20033;-80
2022/07/12 01:42:24;;;;;;;;;;;;;;;14.08;53.83;102478.38;5019479;28;20048;-79
2022/07/12 01:44:51;;;;;;;3.28;0.90;;;;;;;13.73;54.13;102472.34;5033176;28;19932;-77
2022/07/12 01:47:18;;;;;;;1.60;0.90;;;;;;;13.79;54.14;102477.44;5004055;28;20163;-79
2022/07/12 01:49:43;;;;;;;1.63;0.80;;;;;;;13.97;54.37;102472.56;5018793;28;20626;-80
2022/07/12 01:52:09;;;;;;;1.20;0.77;;;;;;;14.02;54.05;102465.41;5004266;28;20053;-78
2022/07/12 01:54:35;;;;;;;1.65;0.75;;;;;;;14.00;53.64;102477.72;5015590;28;20037;-78
2022/07/12 01:57:02;;;;;;;3.95;0.65;;;;;;;13.87;54.18;102472.81;5017013;28;20061;-77
2022/07/12 01:59:29;;;;;;;3.10;0.90;;;;;;;13.55;54.42;102476.31;5016781;28;20037;-78
2022/07/12 02:01:55;;;;;;;1.17;0.50;;;;;;;13.69;54.28;102473.34;5009173;28;20259;-76
2022/07/12 02:04:21;;;;;;;1.10;0.50;;;;;;;13.92;53.64;102470.06;5004408;28;20657;-78
2022/07/12 02:06:47;;;;;;;1.17;0.55;;;;;;;13.94;53.66;102474.38;5015607;28;22806;-78
2022/07/12 02:09:13;;;;;;;2.10;0.50;;;;;;;13.66;54.22;102468.19;4997621;28;20029;-79
2022/07/12 02:11:39;;;;;;;0.90;0.40;;;;;;;13.87;53.82;102467.56;5034317;28;20030;-77
2022/07/12 02:14:05;;;;;;;1.38;0.80;;;;;;;13.92;53.61;102465.69;5014979;28;20069;-78
2022/07/12 02:16:31;;;;;;;0.65;0.35;;;;;;;14.00;53.86;102456.69;5013075;28;20662;-77
2022/07/12 02:18:57;;;;;;;0.85;0.40;;;;;;;14.03;53.53;102462.75;4995228;28;20541;-78
2022/07/12 02:21:22;;;;;;;2.03;0.60;;;;;;;14.09;53.53;102459.91;5018816;28;20065;-76
2022/07/12 02:23:48;;;;;;;1.08;0.68;;;;;;;13.97;53.35;102477.84;5008467;28;20045;-76
2022/07/12 02:26:13;;;;;;;1.65;0.55;;;;;;;14.07;53.43;102471.38;5013403;28;20037;-75
2022/07/12 02:28:39;;;;;;;0.82;0.40;;;;;;;13.92;53.24;102470.94;5016526;28;20236;-74
2022/07/12 02:31:05;;;;;;;1.00;0.60;;;;;;;13.89;53.93;102471.00;5016346;28;20103;-75
2022/07/12 02:33:31;;;;;;;1.10;0.60;;;;;;;13.93;53.80;102466.53;5017114;28;20044;-76
2022/07/12 02:35:56;;;;;;;3.67;0.60;;;;;;;13.88;53.71;102471.91;5001008;28;20036;-78
2022/07/12 02:38:22;;;;;;;0.82;0.43;;;;;;;13.90;53.63;102472.75;4994398;28;20141;-75
2022/07/12 02:40:53;;;;;;;1.33;0.60;;;;;;;13.98;53.40;102469.88;4997566;28;20598;-74
2022/07/12 02:43:30;;;;;;;1.05;0.50;;;;;;;14.05;53.65;102465.31;4996218;28;20037;-76
2022/07/12 02:46:05;;;;;;;1.08;0.40;;;;;;;14.08;53.77;102473.13;5003030;28;20696;-75
2022/07/12 02:48:31;;;;;;;2.35;0.65;;;;;;;13.94;53.38;102463.88;5004004;28;20069;-77
2022/07/12 02:50:56;;;;;;;1.67;0.60;;;;;;;13.77;53.82;102460.84;5011088;28;20018;-77
2022/07/12 02:53:22;;;;;;;1.10;0.52;;;;;;;13.69;54.52;102457.56;5016878;28;20049;-78
2022/07/12 02:55:47;;;;;;;1.55;0.85;;;;;;;13.77;54.19;102458.22;4996377;28;20312;-78
2022/07/12 02:58:13;;;;;;;2.95;0.40;;;;;;;13.68;54.42;102456.72;5012970;28;20048;-77
2022/07/12 03:00:38;;;;;;;1.25;0.60;;;;;;;13.32;55.60;102459.41;5033838;28;20047;-76
2022/07/12 03:03:07;;;;;;;1.23;0.77;;;;;;;13.49;55.43;102455.47;5015759;28;20534;-75
2022/07/12 03:05:34;;;;;;;1.38;0.40;;;;;;;13.64;54.75;102457.69;5011881;28;20029;-75
2022/07/12 03:08:00;;;;;;;1.02;0.40;;;;;;;13.20;55.48;102456.25;4997490;28;20033;-76
2022/07/12 03:10:25;;;;;;;1.00;0.50;;;;;;;13.49;54.77;102448.44;5019695;28;20076;-77
2022/07/12 03:12:51;;;;;;;1.60;0.40;;;;;;;13.59;54.34;102450.88;5011035;28;20045;-76
2022/07/12 03:15:16;;;;;;;1.00;0.40;;;;;;;13.64;54.58;102455.06;5018910;28;20107;-76
2022/07/12 03:17:42;;;;;;;1.23;0.85;;;;;;;13.51;54.53;102454.50;4995198;28;20374;-77
2022/07/12 03:20:11;;;;;;;1.80;1.10;;;;;;;13.42;54.69;102454.75;5002435;28;20034;-77
2022/07/12 03:22:37;;;;;;;2.00;0.85;;;;;;;13.52;54.24;102456.25;5011766;28;20111;-76
2022/07/12 03:25:03;;;;;;;2.00;1.00;;;;;;;13.48;54.58;102462.50;5001368;28;20084;-76
2022/07/12 03:27:31;;;;;;;2.03;1.00;;;;;;;13.59;54.34;102464.00;5013093;28;20115;-75
2022/07/12 03:29:57;;;;;;;1.60;1.00;;;;;;;13.59;54.43;102467.50;5005858;28;20079;-75
2022/07/12 03:32:23;;;;;;;1.85;1.05;;;;;;;13.56;54.44;102466.66;5004675;28;20045;-78
2022/07/12 03:34:48;;;;;;;2.30;1.13;;;;;;;13.67;54.42;102467.25;5019243;28;20592;-79
2022/07/12 03:37:14;;;;;;;1.92;1.05;;;;;;;13.59;54.21;102470.13;5007704;28;20038;-77
2022/07/12 03:39:39;;;;;;;2.45;1.10;;;;;;;13.57;54.33;102469.28;5036247;28;20488;-77
2022/07/12 03:42:05;;;;;;;5.10;1.63;;;;;;;13.43;54.83;102472.25;5021045;28;20177;-74
2022/07/12 03:44:30;;;;;;;1.17;0.70;;;;;;;13.55;54.83;102464.97;4999490;28;20760;-79
2022/07/12 03:46:56;;;;;;;3.90;2.47;;;;;;;13.44;54.74;102452.97;5021682;28;20069;-78
2022/07/12 03:49:21;;;;;;;2.10;1.30;;;;;;;13.55;54.84;102460.56;5019640;28;20365;-75
2022/07/12 03:51:47;;;;;;;2.40;1.38;;;;;;;13.45;54.87;102459.97;5007275;28;20049;-79
2022/07/12 03:54:12;;;;;;;2.75;1.92;;;;;;;13.45;54.69;102451.19;5005563;28;20110;-76
2022/07/12 03:59:22;;;;;;;2.72;1.48;;;;;;;13.48;55.04;102464.25;5019339;28;20621;-77
2022/07/12 04:01:49;;;;;;;2.10;1.52;;;;;;;13.45;54.90;102461.69;5015721;28;20261;-75
2022/07/12 04:04:14;;;;;;;1.90;1.50;;;;;;;13.44;55.10;102460.84;5018963;28;20034;-74
2022/07/12 04:06:40;;;;;;;1.98;1.38;;;;;;;13.52;55.23;102466.75;5014018;28;20026;-76
2022/07/12 04:09:06;;;;;;;2.85;1.67;;;;;;;13.61;55.48;102475.34;5018974;28;20088;-75
2022/07/12 04:11:32;;;;;;;2.92;2.50;;;;;;;13.51;55.30;102472.91;4999285;28;20116;-76
2022/07/12 04:13:58;;;;;;;3.55;2.50;;;;;;;13.44;55.62;102483.63;5014939;28;20053;-78
2022/07/12 04:16:24;;;;;;;4.40;2.67;;;;;;;13.17;56.14;102493.09;4997222;28;20222;-77
2022/07/12 04:18:50;;;;;;;4.55;2.22;;;;;;;13.31;55.72;102488.34;4998656;28;20037;-74
2022/07/12 04:21:15;;;;;;;3.40;2.55;;;;;;;13.19;56.41;102483.41;5021261;28;20033;-78
2022/07/12 04:23:41;;;;;;;3.13;2.50;;;;;;;13.21;56.29;102489.50;5033969;28;20045;-77
2022/07/12 04:26:06;;;;;;;4.20;2.50;;;;;;;13.32;56.29;102485.66;5032780;28;20067;-76
2022/07/12 04:28:32;;;;;;;5.53;2.50;;;;;;;13.36;55.98;102491.72;5014278;28;20037;-75
2022/07/12 04:30:57;;;;;;;3.88;2.78;;;;;;;13.42;56.38;102496.78;5020427;28;20049;-77
2022/07/12 04:33:23;;;;;;;3.92;2.15;;;;;;;13.61;55.55;102488.47;5015335;28;20041;-75
2022/07/12 04:35:49;;;;;;;3.40;2.22;;;;;;;13.51;55.24;102496.53;5017321;28;20026;-77
2022/07/12 04:38:15;;;;;;;3.97;2.05;;;;;;;13.56;55.58;102490.31;4981298;28;20096;-76
2022/07/12 04:40:40;;;;;;;3.20;2.25;;;;;;;12.97;56.55;102491.81;5012802;28;20520;-75
2022/07/12 04:43:06;;;;;;;7.43;5.70;;;;;;;13.29;56.30;102490.13;5031664;28;20308;-77
2022/07/12 04:45:31;;;;;;;4.57;2.20;;;;;;;13.51;55.44;102491.28;5021853;28;20075;-75
2022/07/12 04:47:57;;;;;;;3.50;1.88;;;;;;;13.57;55.22;102492.06;5018570;28;20038;-77
2022/07/12 04:50:22;;;;;;;2.08;1.52;;;;;;;13.52;55.80;102492.16;5016988;28;20083;-78
2022/07/12 04:52:48;;;;;;;4.30;2.13;;;;;;;13.46;55.50;102481.81;4987673;28;20055;-76
2022/07/12 04:55:13;;;;;;;3.03;1.67;;;;;;;13.60;55.22;102479.69;5018709;28;20117;-77
2022/07/12 04:57:39;;;;;;;2.50;1.70;;;;;;;13.47;54.96;102473.03;4998615;28;20508;-77
2022/07/12 05:00:06;;;;;;;2.22;1.50;;;;;;;13.66;55.48;102473.44;5000010;28;20571;-76
2022/07/12 05:02:32;;;;;;;2.55;1.70;;;;;;;13.73;54.77;102481.09;5010263;28;20092;-77
2022/07/12 05:04:57;;;;;;;2.67;1.77;;;;;;;13.66;54.40;102486.56;5015401;28;20037;-77
2022/07/12 05:07:23;;;;;;;2.20;1.52;;;;;;;13.82;54.35;102487.84;5011726;28;20685;-78
2022/07/12 05:09:49;;;;;;;2.10;1.55;;;;;;;13.91;54.22;102495.47;4997871;28;20032;-76
2022/07/12 05:12:14;;;;;;;5.63;3.58;;;;;;;13.72;53.82;102495.16;5010278;28;20081;-76
2022/07/12 05:14:40;;;;;;;1.80;1.10;;;;;;;13.82;54.36;102495.75;5013060;28;20060;-76
2022/07/12 05:17:06;;;;;;;1.85;1.48;;;;;;;13.59;54.07;102498.16;5011632;28;20064;-75
2022/07/12 05:19:31;;;;;;;2.88;0.93;;;;;;;14.06;54.20;102501.22;5014382;28;20809;-78
2022/07/12 05:21:57;;;;;;;4.13;1.27;;;;;;;14.31;53.76;102493.47;5000828;28;20095;-76
2022/07/12 05:24:22;;;;;;;2.22;1.02;;;;;;;14.03;53.39;102494.28;5011242;28;20033;-76
2022/07/12 05:26:48;;;;;;;1.90;1.42;;;;;;;14.04;52.99;102490.75;5007969;28;20476;-75
2022/07/12 05:29:14;;;;;;;1.83;1.00;;;;;;;14.13;52.72;102489.63;5010275;28;20125;-79
2022/07/12 05:31:39;;;;;;;2.70;1.95;;;;;;;13.63;53.58;102495.41;5015275;28;20026;-78
2022/07/12 05:34:05;;;;;;;2.00;1.10;;;;;;;13.82;54.48;102505.41;5016861;28;20036;-78
2022/07/12 05:36:31;;;;;;;2.28;1.50;;;;;;;13.98;53.27;102511.09;5007755;28;20512;-79
2022/07/12 05:38:56;;;;;;;2.65;1.40;;;;;;;14.16;53.58;102510.53;5016216;28;20384;-79
2022/07/12 05:41:21;;;;;;;1.80;1.50;;;;;;;14.27;53.49;102503.19;5018879;28;20614;-79
2022/07/12 05:43:47;;;;;;;4.40;1.58;;;;;;;14.26;53.01;102512.00;5012522;28;20045;-81
2022/07/12 05:46:12;;;;;;;2.65;0.88;;;;;;;14.23;53.09;102519.13;5002679;28;20033;-75
2022/07/12 05:48:39;;;;;;;1.85;1.40;;;;;;;14.30;53.48;102523.28;4999400;28;20044;-79
2022/07/12 05:53:49;;;;;;;2.38;1.35;;;;;;;14.11;53.70;102515.09;5027888;28;20091;-78
2022/07/12 05:56:15;;;;;;;1.85;1.38;;;;;;;14.20;53.63;102525.34;5017372;28;23274;-78
2022/07/12 05:58:41;;;;;;;1.92;1.23;;;;;;;14.28;53.78;102520.72;4999921;28;20137;-76
2022/07/12 06:01:06;;;;;;;2.75;2.08;;;;;;;14.10;52.97;102518.63;5018473;28;20044;-77
2022/07/12 06:03:33;;;;;;;2.38;1.25;;;;;;;13.98;53.52;102526.84;5009466;28;20148;-79
2022/07/12 06:05:59;;;;;;;2.53;1.30;;;;;;;14.05;54.11;102523.13;4999653;28;20037;-78
2022/07/12 06:08:25;;;;;;;2.88;1.48;;;;;;;13.62;54.89;102516.44;4999964;28;20566;-78
2022/07/12 06:10:50;;;;;;;2.97;2.50;;;;;;;14.04;53.33;102510.91;5014783;28;20025;-78
2022/07/12 06:13:16;;;;;;;3.97;2.33;;;;;;;14.16;53.72;102518.44;5015179;28;20041;-79
2022/07/12 06:15:42;;;;;;;2.00;1.50;;;;;;;14.48;53.87;102516.66;5017803;28;20029;-76
2022/07/12 06:18:07;;;;;;;2.33;1.50;;;;;;;14.43;53.46;102519.41;4999091;28;20484;-76
2022/07/12 06:20:33;;;;;;;2.65;2.03;;;;;;;14.40;52.70;102514.22;5016381;28;20593;-78
2022/07/12 06:22:59;;;;;;;2.90;2.58;;;;;;;14.47;52.73;102514.94;5009087;28;20029;-79
2022/07/12 06:25:25;;;;;;;2.33;1.73;;;;;;;14.46;52.15;102524.59;5016355;28;20167;-77
2022/07/12 06:27:50;;;;;;;2.22;1.65;;;;;;;14.53;53.16;102523.50;5022771;28;20068;-81
2022/07/12 06:30:21;;;;;;;2.25;1.55;;;;;;;14.59;52.32;102529.47;5017306;28;20471;-77
2022/07/12 06:32:47;;;;;;;3.50;2.17;;;;;;;14.60;52.05;102542.59;4995011;28;20045;-78
2022/07/12 06:35:14;;;;;;;4.47;2.17;;;;;;;14.55;52.19;102541.88;5011570;28;20040;-75
2022/07/12 06:37:39;;;;;;;3.30;1.70;;;;;;;14.66;52.97;102529.25;5012394;28;20041;-77
2022/07/12 06:40:06;;;;;;;2.28;1.92;;;;;;;14.61;53.03;102533.78;5012886;28;20514;-75
2022/07/12 06:42:32;;;;;;;2.70;1.65;;;;;;;14.79;52.52;102536.75;5012382;28;20046;-77
2022/07/12 06:44:58;;;;;;;2.50;1.80;;;;;;;15.00;52.26;102533.44;5000701;28;20326;-77
2022/07/12 06:47:24;;;;;;;2.00;1.48;;;;;;;15.06;51.74;102538.50;5013753;28;20053;-78
2022/07/12 06:49:49;;;;;;;3.42;1.55;;;;;;;15.08;50.92;102538.44;4993809;28;20037;-75
2022/07/12 06:52:15;;;;;;;2.83;1.75;;;;;;;14.72;52.38;102550.13;5002160;28;20037;-78
2022/07/12 06:54:41;;;;;;;3.17;1.38;;;;;;;15.15;52.61;102540.84;5015956;28;20400;-76
2022/07/12 06:57:06;;;;;;;1.85;1.45;;;;;;;14.83;51.84;102533.97;5014110;28;20772;-76
2022/07/12 06:59:32;;;;;;;2.28;1.65;;;;;;;14.67;52.25;102538.84;5026439;28;20065;-76
2022/07/12 07:01:58;;;;;;;2.45;1.30;;;;;;;15.30;52.36;102536.84;5007564;28;20049;-75
2022/07/12 07:04:24;;;;;;;2.92;1.00;;;;;;;15.70;51.79;102534.63;4990587;28;20065;-76
2022/07/12 07:06:50;;;;;;;2.40;1.52;;;;;;;15.45;50.39;102529.34;5019121;28;20478;-77
2022/07/12 07:09:16;;;;;;;1.63;1.27;;;;;;;15.44;50.47;102530.25;5021295;28;20120;-75
2022/07/12 07:11:42;;;;;;;6.00;1.60;;;;;;;15.57;50.49;102535.06;5013901;28;20039;-76
2022/07/12 07:14:07;;;;;;;1.95;0.98;;;;;;;15.48;50.62;102532.75;5031725;28;20200;-76
2022/07/12 07:16:33;;;;;;;1.88;1.00;;;;;;;15.46;49.83;102529.31;5013656;28;20041;-76
2022/07/12 07:18:59;;;;;;;1.80;1.20;;;;;;;15.51;50.59;102527.38;5028526;28;20033;-76
2022/07/12 07:21:24;;;;;;;2.08;1.30;;;;;;;15.53;50.28;102528.19;5018917;28;20068;-77
2022/07/12 07:23:50;;;;;;;1.77;1.42;;;;;;;15.56;49.72;102524.56;5030234;28;20038;-74
2022/07/12 07:26:16;;;;;;;2.08;1.20;;;;;;;15.55;49.78;102528.97;5017576;28;20033;-75
2022/07/12 07:31:26;;;;;;;1.98;1.25;;;;;;;15.99;49.40;102529.16;5020701;28;20096;-76
2022/07/12 07:33:51;;;;;;;3.17;2.20;;;;;;;16.18;48.87;102539.06;5016287;28;20403;-77
2022/07/12 07:36:17;;;;;;;2.30;1.23;;;;;;;16.45;47.95;102542.44;5021666;28;20025;-77
2022/07/12 07:38:42;;;;;;;1.70;1.33;;;;;;;16.49;48.43;102529.94;5011284;28;20037;-76
2022/07/12 07:41:08;;;;;;;1.40;0.85;;;;;;;15.87;48.87;102534.03;5017970;28;20112;-76
2022/07/12 07:43:33;;;;;;;1.40;0.90;;;;;;;17.10;48.22;102530.16;5013962;28;20037;-76
2022/07/12 07:46:01;;;;;;;1.58;0.95;;;;;;;18.43;44.40;102523.44;5017144;28;20053;-76
2022/07/12 07:48:27;;;;;;;2.08;1.35;;;;;;;18.52;42.01;102518.63;5000060;28;20029;-76
2022/07/12 07:50:52;;;;;;;1.33;0.70;;;;;;;18.13;42.89;102514.25;5011629;28;20528;-76
2022/07/12 07:53:18;;;;;;;2.90;1.00;;;;;;;17.82;45.08;102513.84;5011051;28;20043;-76
2022/07/12 07:55:43;;;;;;;1.50;0.80;;;;;;;19.04;41.49;102510.81;5014102;28;20112;-77
2022/07/12 07:58:09;;;;;;;1.30;1.15;;;;;;;19.21;41.54;102524.09;5019272;28;20128;-76
2022/07/12 08:00:34;;;;;;;1.95;0.70;;;;;;;19.56;41.66;102512.63;5002263;28;20172;-75
2022/07/12 08:03:00;;;;;;;1.60;1.08;;;;;;;19.66;41.88;102511.19;5012119;28;20108;-75
2022/07/12 08:05:26;;;;;;;1.35;0.90;;;;;;;19.09;42.39;102524.69;5016254;28;20034;-77
2022/07/12 08:07:51;;;;;;;2.03;0.80;;;;;;;19.33;41.36;102516.44;4995283;28;20062;-77
2022/07/12 08:10:17;;;;;;;2.22;1.17;;;;;;;19.30;42.21;102523.59;5021048;28;20614;-76
2022/07/12 08:12:42;;;;;;;1.92;1.10;;;;;;;18.52;42.13;102534.50;5014755;28;20042;-77
2022/07/12 08:15:09;;;;;;;1.58;0.82;;;;;;;18.36;43.31;102529.09;5013800;28;20113;-78
2022/07/12 08:17:36;;;;;;;3.08;1.33;;;;;;;18.91;42.65;102530.91;5019806;28;20050;-79
2022/07/12 08:20:03;;;;;;;1.40;0.80;;;;;;;20.47;41.31;102533.31;4996506;28;20037;-78
2022/07/12 08:22:29;;;;;;;1.63;1.05;;;;;;;20.65;38.50;102525.25;5035048;28;20064;-78
2022/07/12 08:24:54;;;;;;;0.80;0.57;;;;;;;20.22;38.37;102538.31;5017608;28;20112;-77
2022/07/12 08:27:20;;;;;;;1.42;0.90;;;;;;;19.75;39.62;102534.59;5003417;28;20079;-78
2022/07/12 08:29:45;;;;;;;1.17;0.50;;;;;;;19.90;39.40;102539.06;5014372;28;20064;-77
2022/07/12 08:32:11;;;;;;;2.42;0.90;;;;;;;20.96;37.70;102523.53;5034816;28;20041;-78
2022/07/12 08:34:36;;;;;;;1.20;0.82;;;;;;;21.90;35.92;102508.94;5021243;28;20037;-79
2022/07/12 08:37:02;;;;;;;0.70;0.43;;;;;;;21.78;36.61;102517.72;4997347;28;20467;-77
2022/07/12 08:39:28;;;;;;;2.80;0.65;;;;;;;22.25;35.77;102519.22;5034684;28;20037;-77
2022/07/12 08:41:53;;;;;;;1.50;0.65;;;;;;;22.85;34.46;102515.31;5010101;28;20060;-78
2022/07/12 08:44:19;;;;;;;1.50;0.38;;;;;;;23.40;33.30;102516.91;4999704;28;20629;-78
2022/07/12 08:46:46;;;;;;;1.00;0.40;;;;;;;23.58;32.49;102516.59;5013624;28;20037;-79
2022/07/12 08:49:13;;;;;;;2.45;0.85;;;;;;;24.26;32.12;102515.31;5012555;28;20059;-78
2022/07/12 08:51:38;;;;;;;0.93;0.55;;;;;;;24.50;31.61;102511.81;5006404;28;20367;-78
2022/07/12 08:54:12;;;;;;;1.00;0.63;;;;;;;24.68;30.40;102509.59;5015373;28;20620;-76
2022/07/12 08:56:40;;;;;;;1.40;0.73;;;;;;;24.81;30.73;102505.88;5019379;28;20038;-77
2022/07/12 08:59:16;;;;;;;1.80;1.02;;;;;;;24.62;31.59;102505.59;5012109;28;20037;-77
2022/07/12 09:01:44;;;;;;;3.60;1.33;;;;;;;24.54;31.41;102502.63;4997498;28;20029;-78
2022/07/12 09:04:14;;;;;;;1.85;1.48;;;;;;;23.82;33.59;102500.66;5017463;28;20477;-77
2022/07/12 09:06:40;;;;;;;3.35;1.35;;;;;;;25.20;31.00;102494.97;5017903;28;20559;-77
2022/07/12 09:09:08;;;;;;;2.50;1.35;;;;;;;24.28;31.04;102497.38;5008911;28;20098;-76
2022/07/12 09:11:36;;;;;;;2.22;1.77;;;;;;;24.51;30.89;102489.50;5033341;28;20026;-78
2022/07/12 09:14:02;;;;;;;2.15;1.50;;;;;;;25.45;30.50;102489.38;5012411;28;20033;-78
2022/07/12 09:16:28;;;;;;;1.90;1.60;;;;;;;24.87;30.60;102493.88;5012100;28;20643;-79
2022/07/12 09:19:14;;;;;;;1.83;1.45;;;;;;;25.19;30.29;102496.78;5018140;28;20044;-78
2022/07/12 09:21:47;;;;;;;2.35;1.58;;;;;;;24.80;32.04;102500.66;4999661;28;20046;-77
2022/07/12 09:24:13;;;;;;;1.90;1.30;;;;;;;24.55;31.78;102497.16;4994107;28;20092;-78
2022/07/12 09:26:38;;;;;;;3.53;1.25;;;;;;;24.86;31.18;102494.81;5013031;28;20468;-77
2022/07/12 09:29:11;;;;;;;1.88;1.45;;;;;;;24.54;31.24;102482.09;5015545;28;20052;-77
2022/07/12 09:37:15;;;;;;;2.65;1.10;;;;;;;25.48;30.55;102483.78;5012765;28;20033;-76
2022/07/12 09:39:41;;;;;;;3.92;0.82;;;;;;;25.59;32.13;102485.66;5013620;28;20037;-77
2022/07/12 09:42:10;;;;;;;2.65;1.30;;;;;;;26.14;30.33;102480.38;5017857;28;20053;-77
2022/07/12 09:44:36;;;;;;;2.47;0.82;;;;;;;25.46;30.71;102485.75;5018904;28;20037;-77
2022/07/12 09:47:02;;;;;;;1.55;0.90;;;;;;;24.78;31.89;102478.53;5013010;28;20101;-77
2022/07/12 09:49:28;;;;;;;1.40;0.80;;;;;;;23.44;34.21;102480.19;5015179;28;20500;-77
2022/07/12 09:51:56;;;;;;;1.98;0.63;;;;;;;24.26;32.34;102477.03;5011622;28;20111;-79
2022/07/12 09:54:27;;;;;;;5.43;1.05;;;;;;;24.41;33.24;102476.81;5019299;28;20056;-77
2022/07/12 09:56:57;;;;;;;2.80;0.95;;;;;;;24.98;32.34;102477.91;4989939;28;20048;-77
2022/07/12 09:59:24;;;;;;;1.05;0.88;;;;;;;24.83;32.24;102487.06;5001328;28;20092;-77
2022/07/12 10:01:51;;;;;;;9.40;1.98;;;;;;;24.42;33.03;102483.84;4999065;28;20037;-75
2022/07/12 10:04:21;;;;;;;3.88;1.05;;;;;;;24.58;33.05;102493.41;5020926;28;20044;-78
2022/07/12 10:06:47;;;;;;;3.00;0.65;;;;;;;24.16;33.81;102498.25;5026441;28;26006;-75
2022/07/12 10:09:15;;;;;;;0.93;0.52;;;;;;;24.05;34.57;102495.50;5000268;28;20625;-76
2022/07/12 10:11:41;;;;;;;1.35;0.60;;;;;;;23.99;32.87;102486.09;5018074;28;20068;-76
2022/07/12 10:14:11;;;;;;;4.65;0.40;;;;;;;23.59;33.87;102494.28;5016396;28;20057;-74
2022/07/12 10:16:38;;;;;;;1.17;0.55;;;;;;;23.51;35.16;102493.97;5016043;28;20033;-76
2022/07/12 10:19:32;;;;;;;2.97;1.23;;;;;;;23.20;34.51;102501.38;5012049;28;20083;-76
2022/07/12 10:21:59;;;;;;;2.30;0.57;;;;;;;23.40;34.57;102495.56;5007079;28;20050;-77
2022/07/12 10:24:31;;;;;;;1.77;0.60;;;;;;;23.21;34.99;102489.78;5030021;28;20029;-77
2022/07/12 10:27:00;;;;;;;1.63;0.47;;;;;;;23.54;34.19;102496.41;5006347;28;20663;-75
2022/07/12 10:29:26;;;;;;;3.30;0.55;;;;;;;24.02;33.49;102492.09;5022101;28;20068;-77
2022/07/12 10:31:52;;;;;;;1.40;0.80;;;;;;;23.79;33.91;102491.06;5008834;28;20131;-78
2022/07/12 10:34:23;;;;;;;0.73;0.30;;;;;;;24.69;33.38;102484.59;5010600;28;20057;-75
2022/07/12 10:36:54;;;;;;;1.45;0.85;;;;;;;24.92;31.95;102488.19;4993047;28;20396;-75
2022/07/12 10:39:20;;;;;;;;;;;;;;;24.88;32.07;102492.03;5032581;28;20731;-78
2022/07/12 10:42:05;;;;;;;1.25;0.55;;;;;;;25.39;32.80;102487.19;5013384;28;19913;-78
2022/07/12 10:44:36;;;;;;;1.55;0.73;;;;;;;25.11;31.83;102485.84;5000757;28;20427;-76
2022/07/12 10:47:03;;;;;;;1.53;0.70;;;;;;;24.39;32.93;102483.19;5013625;28;20049;-77
2022/07/12 10:49:32;;;;;;;1.73;0.80;;;;;;;24.97;32.06;102478.00;5016445;28;20076;-78
2022/07/12 10:52:10;;;;;;;1.83;0.95;;;;;;;25.37;32.34;102478.44;5013089;28;20034;-78
2022/07/12 10:54:41;;;;;;;1.00;0.50;;;;;;;25.28;32.00;102471.13;4994086;28;20076;-77
2022/07/12 10:57:07;;;;;;;1.40;0.90;;;;;;;25.86;32.37;102466.50;5011994;28;20091;-76
2022/07/12 10:59:35;;;;;;;0.73;0.30;;;;;;;24.58;33.28;102464.00;4997501;28;20748;-75
2022/07/12 11:02:00;;;;;;;1.10;0.30;;;;;;;25.17;30.42;102457.72;4990045;28;20069;-77
2022/07/12 11:04:29;;;;;;;1.02;0.45;;;;;;;25.70;30.09;102449.97;5010330;28;20076;-77
2022/07/12 11:06:58;;;;;;;1.25;0.57;;;;;;;26.27;30.51;102448.91;5007320;28;20531;-77
2022/07/12 11:09:25;;;;;;;1.83;1.00;;;;;;;25.88;31.39;102459.19;5016539;28;20025;-77
2022/07/12 11:11:52;;;;;;;1.20;0.80;;;;;;;26.27;30.85;102454.28;4994123;28;20041;-76
2022/07/12 11:14:34;;;;;;;3.28;1.10;;;;;;;26.00;30.59;102452.00;5013395;28;20071;-76
2022/07/12 11:17:00;;;;;;;1.10;0.60;;;;;;;25.56;31.18;102455.59;5010881;28;20513;-78
2022/07/12 11:19:27;;;;;;;1.27;0.73;;;;;;;25.93;30.46;102447.25;5010895;28;20690;-77
2022/07/12 11:21:57;;;;;;;1.27;0.47;;;;;;;26.42;30.37;102445.91;5011162;28;20198;-77
2022/07/12 11:24:28;;;;;;;2.63;0.30;;;;;;;26.80;28.56;102444.53;5008539;28;20064;-76
2022/07/12 11:26:54;;;;;;;1.13;0.30;;;;;;;25.92;29.50;102438.38;5008881;28;20089;-76
2022/07/12 11:29:21;;;;;;;1.80;0.70;;;;;;;25.43;32.59;102434.28;4998820;28;20040;-78
2022/07/12 11:31:47;;;;;;;1.45;0.80;;;;;;;26.23;30.70;102434.06;4996890;28;20109;-75
2022/07/12 11:34:21;;;;;;;1.38;0.40;;;;;;;26.81;30.16;102441.72;5006393;28;20496;-76
2022/07/12 11:36:47;;;;;;;0.40;0.25;;;;;;;27.36;28.94;102440.63;4997173;28;20037;-76
2022/07/12 11:39:13;;;;;;;0.77;0.60;;;;;;;27.84;28.18;102445.34;5012064;28;20084;-75